createdAt,value
2022-10-17T00:00:08.367Z,21.39
2022-10-17T00:02:35.108Z,21.45
2022-10-17T00:05:01.783Z,21.49
2022-10-17T00:07:28.798Z,21.45
2022-10-17T00:09:55.829Z,21.41
2022-10-17T00:12:22.631Z,21.47
2022-10-17T00:14:49.242Z,21.34
2022-10-17T00:17:16.559Z,21.52
2022-10-17T00:19:43.237Z,21.54
2022-10-17T00:22:10.105Z,21.55
2022-10-17T00:24:36.828Z,21.54
2022-10-17T00:27:03.716Z,21.50
2022-10-17T00:29:30.612Z,21.52
2022-10-17T00:31:57.588Z,21.62
2022-10-17T00:34:25.435Z,21.60
2022-10-17T00:36:52.423Z,21.62
2022-10-17T00:39:19.240Z,21.57
2022-10-17T00:41:46.167Z,21.53
2022-10-17T00:44:31.262Z,21.45
2022-10-17T00:47:01.616Z,21.51
2022-10-17T00:49:32.988Z,21.48
2022-10-17T00:52:15.906Z,21.42
2022-10-17T00:54:49.707Z,21.43
2022-10-17T00:57:17.815Z,21.45
2022-10-17T00:59:48.884Z,21.48
2022-10-17T01:02:18.540Z,21.50
2022-10-17T01:04:48.887Z,21.45
2022-10-17T01:07:15.670Z,21.58
2022-10-17T01:09:45.182Z,21.48
2022-10-17T01:12:31.757Z,21.54
2022-10-17T01:15:23.202Z,21.50
2022-10-17T01:18:24.937Z,21.48
2022-10-17T01:21:26.816Z,21.47
2022-10-17T01:24:11.623Z,21.49
2022-10-17T01:26:59.737Z,21.49
2022-10-17T01:29:44.260Z,21.45
2022-10-17T01:32:16.034Z,21.45
2022-10-17T01:34:53.097Z,21.45
2022-10-17T01:37:41.315Z,21.47
2022-10-17T01:40:13.766Z,21.51
2022-10-17T01:42:59.129Z,21.49
2022-10-17T01:45:37.612Z,21.50
2022-10-17T01:48:11.513Z,21.43
2022-10-17T01:50:43.642Z,21.55
2022-10-17T01:53:27.312Z,21.47
2022-10-17T01:58:33.732Z,21.52
2022-10-17T02:01:04.635Z,21.41
2022-10-17T02:03:32.394Z,21.49
2022-10-17T02:05:58.909Z,21.52
2022-10-17T02:08:45.006Z,21.59
2022-10-17T02:11:22.335Z,21.53
2022-10-17T02:14:15.856Z,21.58
2022-10-17T02:17:01.116Z,21.59
2022-10-17T02:19:57.727Z,21.60
2022-10-17T02:22:33.578Z,21.64
2022-10-17T02:25:49.406Z,21.63
2022-10-17T02:28:15.882Z,21.61
2022-10-17T02:30:49.943Z,21.64
2022-10-17T02:33:30.944Z,21.52
2022-10-17T02:36:03.330Z,21.51
2022-10-17T02:38:31.750Z,21.50
2022-10-17T02:40:59.275Z,21.44
2022-10-17T02:43:26.136Z,21.46
2022-10-17T02:45:54.048Z,21.47
2022-10-17T02:48:44.135Z,21.59
2022-10-17T02:51:34.971Z,21.47
2022-10-17T02:54:11.486Z,21.57
2022-10-17T02:56:46.347Z,21.56
2022-10-17T02:59:16.439Z,21.47
2022-10-17T03:01:44.111Z,21.48
2022-10-17T03:04:13.620Z,21.59
2022-10-17T03:06:41.379Z,21.57
2022-10-17T03:09:08.202Z,21.55
2022-10-17T03:11:34.758Z,21.59
2022-10-17T03:14:01.291Z,21.64
2022-10-17T03:16:27.855Z,21.60
2022-10-17T03:18:54.378Z,21.70
2022-10-17T03:21:21.067Z,21.61
2022-10-17T03:23:47.621Z,21.61
2022-10-17T03:26:14.303Z,21.51
2022-10-17T03:28:40.862Z,21.61
2022-10-17T03:31:13.052Z,21.68
2022-10-17T03:33:39.734Z,21.64
2022-10-17T03:36:07.948Z,21.59
2022-10-17T03:38:35.250Z,21.50
2022-10-17T03:41:02.740Z,21.59
2022-10-17T03:43:29.520Z,21.56
2022-10-17T03:45:58.104Z,21.53
2022-10-17T03:48:26.042Z,21.51
2022-10-17T03:50:58.087Z,21.44
2022-10-17T03:53:24.586Z,21.41
2022-10-17T03:55:51.074Z,21.49
2022-10-17T03:58:17.562Z,21.44
2022-10-17T04:00:44.091Z,21.38
2022-10-17T04:03:14.932Z,21.34
2022-10-17T04:05:43.890Z,21.51
2022-10-17T04:08:10.441Z,21.41
2022-10-17T04:10:36.956Z,21.48
2022-10-17T04:13:03.515Z,21.42
2022-10-17T04:15:30.070Z,21.45
2022-10-17T04:17:56.597Z,21.38
2022-10-17T04:20:23.130Z,21.37
2022-10-17T04:22:49.606Z,21.39
2022-10-17T04:25:16.164Z,21.42
2022-10-17T04:27:42.635Z,21.41
2022-10-17T04:30:09.460Z,21.44
2022-10-17T04:32:41.677Z,21.35
2022-10-17T04:35:09.026Z,21.46
2022-10-17T04:37:35.583Z,21.41
2022-10-17T04:40:02.045Z,21.39
2022-10-17T04:42:29.559Z,21.39
2022-10-17T04:44:56.272Z,21.51
2022-10-17T04:47:22.782Z,21.48
2022-10-17T04:49:49.241Z,21.51
2022-10-17T04:52:16.289Z,21.45
2022-10-17T04:54:42.784Z,21.59
2022-10-17T04:57:09.375Z,21.73
2022-10-17T04:59:36.019Z,21.62
2022-10-17T05:02:02.553Z,21.57
2022-10-17T05:04:29.090Z,21.51
2022-10-17T05:06:55.637Z,21.51
2022-10-17T05:09:22.108Z,21.43
2022-10-17T05:11:48.913Z,21.46
2022-10-17T05:14:15.625Z,21.49
2022-10-17T05:16:42.263Z,21.47
2022-10-17T05:19:08.837Z,21.58
2022-10-17T05:21:37.432Z,21.54
2022-10-17T05:24:09.416Z,21.46
2022-10-17T05:26:36.466Z,21.47
2022-10-17T05:29:03.435Z,21.49
2022-10-17T05:31:30.463Z,21.50
2022-10-17T05:34:01.354Z,21.49
2022-10-17T05:36:28.150Z,21.53
2022-10-17T05:38:54.717Z,21.52
2022-10-17T05:41:21.381Z,21.51
2022-10-17T05:43:47.914Z,21.53
2022-10-17T05:46:14.428Z,21.53
2022-10-17T05:48:40.930Z,21.60
2022-10-17T05:51:09.906Z,21.67
2022-10-17T05:53:39.539Z,21.62
2022-10-17T05:56:08.155Z,21.53
2022-10-17T05:58:53.224Z,21.62
2022-10-17T06:01:21.748Z,21.57
2022-10-17T06:03:48.302Z,21.47
2022-10-17T06:06:15.719Z,21.41
2022-10-17T06:08:42.887Z,21.47
2022-10-17T06:11:10.508Z,21.50
2022-10-17T06:13:38.621Z,21.55
2022-10-17T06:16:06.234Z,21.47
2022-10-17T06:18:33.441Z,21.45
2022-10-17T06:21:06.005Z,21.47
2022-10-17T06:23:32.889Z,21.47
2022-10-17T06:26:01.043Z,21.49
2022-10-17T06:28:27.916Z,21.60
2022-10-17T06:30:54.831Z,21.67
2022-10-17T06:33:23.209Z,21.63
2022-10-17T06:35:54.486Z,21.72
2022-10-17T06:38:21.290Z,21.58
2022-10-17T06:40:47.861Z,21.68
2022-10-17T06:43:14.503Z,21.45
2022-10-17T06:45:41.776Z,21.73
2022-10-17T06:48:08.829Z,21.81
2022-10-17T06:50:36.014Z,21.56
2022-10-17T06:53:02.676Z,21.47
2022-10-17T06:55:30.681Z,21.47
2022-10-17T06:57:57.388Z,21.52
2022-10-17T07:00:24.023Z,21.52
2022-10-17T07:02:50.529Z,21.56
2022-10-17T07:05:19.190Z,21.55
2022-10-17T07:07:47.514Z,21.66
2022-10-17T07:10:16.311Z,21.70
2022-10-17T07:12:44.737Z,21.74
2022-10-17T07:15:12.798Z,21.77
2022-10-17T07:17:39.509Z,21.80
2022-10-17T07:20:06.582Z,21.87
2022-10-17T07:22:33.157Z,21.90
2022-10-17T07:24:59.716Z,21.92
2022-10-17T07:27:26.377Z,21.95
2022-10-17T07:29:53.056Z,22.06
2022-10-17T07:32:19.560Z,22.08
2022-10-17T07:34:46.037Z,22.12
2022-10-17T07:37:12.627Z,22.24
2022-10-17T07:39:40.067Z,22.26
2022-10-17T07:42:07.721Z,22.19
2022-10-17T07:44:35.494Z,22.31
2022-10-17T07:47:02.256Z,22.24
2022-10-17T07:49:29.322Z,22.34
2022-10-17T07:51:55.923Z,22.32
2022-10-17T07:54:22.719Z,22.40
2022-10-17T07:56:50.664Z,22.44
2022-10-17T07:59:20.642Z,22.45
2022-10-17T08:01:47.214Z,22.51
2022-10-17T08:04:14.050Z,22.57
2022-10-17T08:06:40.527Z,22.50
2022-10-17T08:09:07.096Z,22.58
2022-10-17T08:11:33.749Z,22.42
2022-10-17T08:14:00.271Z,22.49
2022-10-17T08:16:26.818Z,22.47
2022-10-17T08:18:53.374Z,22.46
2022-10-17T08:21:19.970Z,22.46
2022-10-17T08:23:46.666Z,22.57
2022-10-17T08:26:16.814Z,22.65
2022-10-17T08:28:43.773Z,22.90
2022-10-17T08:31:14.126Z,22.94
2022-10-17T08:33:42.876Z,22.89
2022-10-17T08:36:10.098Z,23.13
2022-10-17T08:38:40.321Z,23.10
2022-10-17T08:41:51.050Z,23.11
2022-10-17T08:44:42.365Z,22.91
2022-10-17T08:47:19.698Z,22.96
2022-10-17T08:49:57.383Z,23.21
2022-10-17T08:52:34.653Z,23.08
2022-10-17T08:55:01.340Z,23.01
2022-10-17T08:57:29.109Z,22.93
2022-10-17T08:59:56.871Z,22.93
2022-10-17T09:02:42.124Z,23.09
2022-10-17T09:05:23.983Z,23.05
2022-10-17T09:08:10.233Z,23.24
2022-10-17T09:10:42.434Z,23.30
2022-10-17T09:13:34.287Z,23.03
2022-10-17T09:16:19.214Z,23.31
2022-10-17T09:19:30.757Z,23.11
2022-10-17T09:22:05.769Z,23.31
2022-10-17T09:24:51.112Z,23.34
2022-10-17T09:27:36.102Z,23.46
2022-10-17T09:30:46.190Z,23.42
2022-10-17T09:33:34.385Z,23.51
2022-10-17T09:36:05.489Z,23.72
2022-10-17T09:38:39.705Z,23.63
2022-10-17T09:44:13.716Z,23.54
2022-10-17T09:46:40.329Z,23.66
2022-10-17T09:49:17.428Z,23.66
2022-10-17T09:51:44.242Z,23.55
2022-10-17T09:54:24.084Z,23.62
2022-10-17T09:57:00.193Z,23.55
2022-10-17T09:59:34.074Z,23.62
2022-10-17T10:02:12.646Z,23.76
2022-10-17T10:05:06.739Z,23.58
2022-10-17T10:07:38.179Z,23.59
2022-10-17T10:10:07.565Z,23.94
2022-10-17T10:12:38.213Z,23.93
2022-10-17T10:15:32.405Z,24.00
2022-10-17T10:17:59.075Z,23.84
2022-10-17T10:20:37.634Z,23.90
2022-10-17T10:23:08.185Z,23.81
2022-10-17T10:25:36.003Z,23.85
2022-10-17T10:28:09.661Z,23.93
2022-10-17T10:30:39.175Z,23.84
2022-10-17T10:33:06.707Z,23.69
2022-10-17T10:35:36.152Z,23.46
2022-10-17T10:38:10.967Z,23.42
2022-10-17T10:40:54.008Z,23.58
2022-10-17T10:43:35.643Z,23.43
2022-10-17T10:46:06.153Z,23.51
2022-10-17T10:48:36.483Z,23.43
2022-10-17T10:51:13.034Z,23.34
2022-10-17T10:53:45.631Z,23.53
2022-10-17T10:56:26.018Z,23.33
2022-10-17T10:59:19.829Z,23.17
2022-10-17T11:01:59.721Z,23.23
2022-10-17T11:04:55.072Z,23.11
2022-10-17T11:07:36.548Z,23.26
2022-10-17T11:10:10.117Z,23.24
2022-10-17T11:12:39.026Z,23.27
2022-10-17T11:15:28.154Z,23.62
2022-10-17T11:17:59.847Z,23.65
2022-10-17T11:20:58.188Z,23.80
2022-10-17T11:23:36.671Z,23.88
2022-10-17T11:26:11.352Z,23.71
2022-10-17T11:28:37.983Z,23.96
2022-10-17T11:31:09.618Z,23.66
2022-10-17T11:33:56.950Z,23.76
2022-10-17T11:36:34.779Z,23.74
2022-10-17T11:39:06.671Z,23.91
2022-10-17T11:41:55.207Z,24.00
2022-10-17T11:44:41.972Z,24.10
2022-10-17T11:47:23.686Z,24.22
2022-10-17T11:53:30.619Z,24.44
2022-10-17T11:56:00.654Z,24.43
2022-10-17T12:01:01.758Z,24.42
2022-10-17T12:03:46.875Z,24.42
2022-10-17T12:06:31.572Z,24.41
2022-10-17T12:09:19.942Z,24.49
2022-10-17T12:11:50.857Z,24.55
2022-10-17T12:14:35.920Z,24.64
2022-10-17T12:17:04.354Z,24.42
2022-10-17T12:19:33.909Z,24.48
2022-10-17T12:22:00.470Z,24.34
2022-10-17T12:24:35.680Z,24.40
2022-10-17T12:27:38.435Z,24.56
2022-10-17T12:30:16.362Z,24.54
2022-10-17T12:33:21.842Z,24.45
2022-10-17T12:35:51.277Z,24.77
2022-10-17T12:38:17.778Z,24.93
2022-10-17T12:40:48.708Z,24.87
2022-10-17T12:43:15.668Z,24.74
2022-10-17T12:45:49.756Z,24.75
2022-10-17T12:48:34.490Z,24.69
2022-10-17T12:51:23.736Z,24.76
2022-10-17T12:53:58.509Z,24.77
2022-10-17T12:56:35.363Z,24.90
2022-10-17T12:59:09.258Z,24.98
2022-10-17T13:01:39.962Z,25.26
2022-10-17T13:04:10.733Z,24.98
2022-10-17T13:06:45.156Z,24.83
2022-10-17T13:09:25.171Z,24.91
2022-10-17T13:11:52.531Z,24.97
2022-10-17T13:14:21.396Z,25.13
2022-10-17T13:17:00.881Z,25.24
2022-10-17T13:19:41.154Z,25.07
2022-10-17T13:22:17.938Z,24.78
2022-10-17T13:24:45.303Z,24.90
2022-10-17T13:27:30.266Z,24.86
2022-10-17T13:30:00.852Z,25.05
2022-10-17T13:32:39.270Z,24.94
2022-10-17T13:35:14.624Z,24.96
2022-10-17T13:37:43.673Z,25.19
2022-10-17T13:43:18.985Z,25.03
2022-10-17T13:45:52.266Z,25.22
2022-10-17T13:48:27.530Z,25.19
2022-10-17T13:51:01.760Z,25.17
2022-10-17T13:53:39.760Z,25.16
2022-10-17T13:56:34.218Z,25.22
2022-10-17T13:59:08.410Z,25.13
2022-10-17T14:01:35.226Z,25.08
2022-10-17T14:04:08.931Z,25.10
2022-10-17T14:06:49.639Z,24.98
2022-10-17T14:09:30.198Z,25.01
2022-10-17T14:12:01.779Z,24.94
2022-10-17T14:14:30.364Z,24.98
2022-10-17T14:17:01.170Z,25.00
2022-10-17T14:19:31.355Z,25.01
2022-10-17T14:22:38.377Z,24.96
2022-10-17T14:25:06.075Z,25.01
2022-10-17T14:27:39.753Z,24.96
2022-10-17T14:30:07.878Z,24.94
2022-10-17T14:32:37.302Z,25.00
2022-10-17T14:35:24.423Z,25.21
2022-10-17T14:37:57.751Z,25.12
2022-10-17T14:40:27.303Z,25.16
2022-10-17T14:42:56.937Z,25.21
2022-10-17T14:45:39.761Z,25.19
2022-10-17T14:48:16.592Z,25.17
2022-10-17T14:51:09.823Z,25.31
2022-10-17T14:53:37.733Z,25.26
2022-10-17T14:56:21.413Z,25.29
2022-10-17T14:58:48.018Z,25.23
2022-10-17T15:01:14.539Z,25.09
2022-10-17T15:03:41.155Z,25.07
2022-10-17T15:06:19.281Z,25.01
2022-10-17T15:08:45.927Z,24.86
2022-10-17T15:11:12.738Z,25.01
2022-10-17T15:13:44.664Z,24.92
2022-10-17T15:16:18.442Z,24.92
2022-10-17T15:18:45.093Z,24.90
2022-10-17T15:21:33.728Z,24.84
2022-10-17T15:24:01.763Z,24.97
2022-10-17T15:26:32.578Z,24.98
2022-10-17T15:28:59.624Z,24.89
2022-10-17T15:31:27.625Z,24.77
2022-10-17T15:33:54.190Z,24.78
2022-10-17T15:36:23.871Z,24.77
2022-10-17T15:38:53.292Z,24.76
2022-10-17T15:41:20.113Z,24.71
2022-10-17T15:43:49.692Z,24.70
2022-10-17T15:46:22.767Z,24.67
2022-10-17T15:48:50.113Z,24.70
2022-10-17T15:51:17.582Z,24.63
2022-10-17T15:53:44.370Z,24.52
2022-10-17T15:56:23.140Z,24.57
2022-10-17T15:58:50.113Z,24.63
2022-10-17T16:01:29.606Z,24.51
2022-10-17T16:03:56.630Z,24.55
2022-10-17T16:06:24.394Z,24.43
2022-10-17T16:08:51.949Z,24.36
2022-10-17T16:11:37.466Z,24.52
2022-10-17T16:14:06.431Z,24.49
2022-10-17T16:16:33.025Z,24.59
2022-10-17T16:18:59.675Z,24.54
2022-10-17T16:24:01.663Z,24.50
2022-10-17T16:26:28.783Z,24.36
2022-10-17T16:28:57.410Z,24.33
2022-10-17T16:31:31.092Z,24.20
2022-10-17T16:33:59.429Z,24.13
2022-10-17T16:36:25.914Z,24.12
2022-10-17T16:38:54.118Z,24.00
2022-10-17T16:41:22.674Z,24.01
2022-10-17T16:43:50.639Z,24.08
2022-10-17T16:46:17.910Z,23.99
2022-10-17T16:48:45.431Z,23.79
2022-10-17T16:51:13.879Z,23.83
2022-10-17T16:53:43.873Z,23.75
2022-10-17T16:56:14.273Z,23.66
2022-10-17T16:58:42.221Z,23.66
2022-10-17T17:01:20.480Z,23.53
2022-10-17T17:03:47.634Z,23.58
2022-10-17T17:06:20.752Z,23.58
2022-10-17T17:08:47.975Z,23.56
2022-10-17T17:11:17.975Z,23.29
2022-10-17T17:13:45.216Z,23.34
2022-10-17T17:16:22.769Z,23.38
2022-10-17T17:18:53.459Z,23.17
2022-10-17T17:21:20.006Z,23.27
2022-10-17T17:23:46.830Z,23.23
2022-10-17T17:26:17.023Z,23.12
2022-10-17T17:28:44.482Z,23.22
2022-10-17T17:31:17.907Z,23.20
2022-10-17T17:33:46.693Z,22.98
2022-10-17T17:36:17.518Z,22.99
2022-10-17T17:38:45.312Z,22.97
2022-10-17T17:41:13.901Z,23.03
2022-10-17T17:43:41.265Z,23.02
2022-10-17T17:46:08.437Z,23.05
2022-10-17T17:48:39.439Z,22.95
2022-10-17T17:51:08.111Z,23.10
2022-10-17T17:53:35.239Z,22.92
2022-10-17T17:56:17.323Z,22.79
2022-10-17T17:58:46.544Z,22.93
2022-10-17T18:01:21.393Z,22.89
2022-10-17T18:03:49.603Z,22.84
2022-10-17T18:06:17.030Z,22.66
2022-10-17T18:08:45.546Z,22.60
2022-10-17T18:11:12.271Z,22.54
2022-10-17T18:13:39.214Z,22.52
2022-10-17T18:16:13.198Z,22.53
2022-10-17T18:18:41.598Z,22.52
2022-10-17T18:21:09.003Z,22.42
2022-10-17T18:23:39.835Z,22.47
2022-10-17T18:26:07.146Z,22.36
2022-10-17T18:28:35.769Z,22.34
2022-10-17T18:31:24.449Z,22.35
2022-10-17T18:33:52.961Z,22.39
2022-10-17T18:36:20.960Z,22.27
2022-10-17T18:38:48.764Z,22.22
2022-10-17T18:41:18.217Z,22.26
2022-10-17T18:43:46.377Z,22.42
2022-10-17T18:46:19.532Z,22.37
2022-10-17T18:48:47.688Z,22.39
2022-10-17T18:51:16.694Z,22.47
2022-10-17T18:53:45.485Z,22.30
2022-10-17T18:56:12.965Z,22.33
2022-10-17T18:58:40.550Z,22.40
2022-10-17T19:01:10.680Z,22.33
2022-10-17T19:03:38.512Z,22.24
2022-10-17T19:06:10.199Z,22.28
2022-10-17T19:08:37.765Z,22.24
2022-10-17T19:11:09.772Z,22.02
2022-10-17T19:13:36.801Z,22.23
2022-10-17T19:16:08.357Z,22.05
2022-10-17T19:18:36.419Z,21.99
2022-10-17T19:21:04.675Z,22.14
2022-10-17T19:23:31.814Z,22.01
2022-10-17T19:26:07.823Z,21.94
2022-10-17T19:28:36.426Z,21.89
2022-10-17T19:31:03.642Z,21.91
2022-10-17T19:33:31.989Z,21.88
2022-10-17T19:36:00.707Z,21.92
2022-10-17T19:38:27.281Z,21.93
2022-10-17T19:40:53.999Z,21.96
2022-10-17T19:43:21.820Z,21.95
2022-10-17T19:45:58.853Z,21.95
2022-10-17T19:48:26.299Z,21.99
2022-10-17T19:50:53.715Z,21.99
2022-10-17T19:53:23.110Z,22.04
2022-10-17T19:55:50.245Z,22.01
2022-10-17T19:58:16.890Z,21.95
2022-10-17T20:00:48.326Z,21.90
2022-10-17T20:03:14.818Z,21.98
2022-10-17T20:05:41.557Z,21.94
2022-10-17T20:08:08.217Z,21.88
2022-10-17T20:10:34.762Z,21.98
2022-10-17T20:13:01.674Z,22.02
2022-10-17T20:15:28.382Z,21.98
2022-10-17T20:17:55.009Z,22.02
2022-10-17T20:20:21.860Z,21.97
2022-10-17T20:22:48.385Z,21.94
2022-10-17T20:25:14.980Z,21.98
2022-10-17T20:27:41.520Z,21.92
2022-10-17T20:30:08.685Z,21.95
2022-10-17T20:32:39.620Z,21.90
2022-10-17T20:35:07.587Z,21.86
2022-10-17T20:37:39.883Z,21.84
2022-10-17T20:42:56.197Z,21.81
2022-10-17T20:45:37.369Z,21.85
2022-10-17T20:48:16.355Z,21.36
2022-10-17T20:50:45.754Z,21.83
2022-10-17T20:56:25.429Z,21.83
2022-10-17T20:58:57.244Z,21.91
2022-10-17T21:01:25.916Z,21.96
2022-10-17T21:03:53.000Z,21.99
2022-10-17T21:06:20.348Z,21.94
2022-10-17T21:08:48.273Z,21.73
2022-10-17T21:11:21.176Z,21.75
2022-10-17T21:13:48.684Z,21.69
2022-10-17T21:16:18.231Z,21.72
2022-10-17T21:18:45.966Z,21.66
2022-10-17T21:21:20.983Z,21.77
2022-10-17T21:23:49.318Z,21.84
2022-10-17T21:26:17.399Z,21.83
2022-10-17T21:28:45.484Z,21.79
2022-10-17T21:31:18.171Z,21.83
2022-10-17T21:33:48.714Z,21.74
2022-10-17T21:36:16.864Z,21.83
2022-10-17T21:38:45.547Z,21.87
2022-10-17T21:41:14.121Z,21.75
2022-10-17T21:43:41.514Z,21.83
2022-10-17T21:46:16.130Z,21.85
2022-10-17T21:48:43.428Z,21.72
2022-10-17T21:51:12.606Z,21.72
2022-10-17T21:53:39.479Z,21.68
2022-10-17T21:56:12.078Z,21.75
2022-10-17T21:58:38.823Z,21.79
2022-10-17T22:01:07.955Z,21.76
2022-10-17T22:03:41.328Z,21.76
2022-10-17T22:06:38.605Z,21.80
2022-10-17T22:08:59.168Z,21.81
2022-10-17T22:11:29.262Z,21.66
2022-10-17T22:13:57.483Z,21.61
2022-10-17T22:16:24.679Z,21.69
2022-10-17T22:18:51.706Z,21.74
2022-10-17T22:21:22.171Z,21.72
2022-10-17T22:24:26.659Z,21.76
2022-10-17T22:26:53.203Z,21.72
2022-10-17T22:29:20.187Z,21.79
2022-10-17T22:31:47.180Z,21.77
2022-10-17T22:34:15.806Z,21.71
2022-10-17T22:36:42.523Z,21.62
2022-10-17T22:39:09.695Z,21.71
2022-10-17T22:41:36.566Z,21.66
2022-10-17T22:44:03.455Z,21.64
2022-10-17T22:46:30.050Z,21.68
2022-10-17T22:48:56.617Z,21.72
2022-10-17T22:53:55.109Z,21.67
2022-10-17T22:56:24.076Z,21.59
2022-10-17T22:58:51.527Z,21.63
2022-10-17T23:01:20.620Z,21.67
2022-10-17T23:03:47.391Z,21.63
2022-10-17T23:06:13.917Z,21.70
2022-10-17T23:08:41.376Z,21.51
2022-10-17T23:11:08.163Z,21.51
2022-10-17T23:13:36.531Z,21.56
2022-10-17T23:16:04.300Z,21.63
2022-10-17T23:21:02.501Z,21.61
2022-10-17T23:23:29.222Z,21.60
2022-10-17T23:25:56.518Z,21.45
2022-10-17T23:28:23.071Z,21.45
2022-10-17T23:30:49.773Z,21.46
2022-10-17T23:33:16.383Z,21.50
2022-10-17T23:35:42.903Z,21.45
2022-10-17T23:38:10.026Z,21.48
2022-10-17T23:40:36.662Z,21.51
2022-10-17T23:43:04.360Z,21.53
2022-10-17T23:45:36.010Z,21.49
2022-10-17T23:48:04.902Z,21.71
2022-10-17T23:50:31.442Z,21.46
2022-10-17T23:52:57.974Z,21.44
2022-10-17T23:55:24.508Z,21.33
2022-10-17T23:57:52.905Z,21.30
